Time;durP1;ratioP1;P1;durP2;ratioP2;P2;SDS_P1;SDS_P2;PMS_P1;PMS_P2;Temp;Humidity;BMP_temperature;BMP_pressure;BME280_temperature;BME280_humidity;BME280_pressure;Samples;Min_cycle;Max_cycle;Signal;HPM_P1;HPM_P2
2022/01/04 00:01:15;;;;;;;23.13;20.08;;;;;;;;;;12551233;28;20513;-73
2022/01/04 00:07:16;;;;;;;23.02;19.17;;;;;;;;;;12550494;28;20147;-74
2022/01/04 00:13:24;;;;;;;30.98;25.85;;;;;;;;;;12550567;28;20545;-73
2022/01/04 00:19:26;;;;;;;42.63;34.40;;;;;;;;;;12550645;28;20036;-73
2022/01/04 00:25:27;;;;;;;46.45;39.13;;;;;;;;;;12533981;28;20033;-73
2022/01/04 00:31:29;;;;;;;34.78;30.98;;;;;;;;;;12550759;28;20049;-73
2022/01/04 00:37:31;;;;;;;29.48;25.98;;;;;;;;;;12532741;28;20063;-74
2022/01/04 00:43:33;;;;;;;30.80;26.48;;;;;;;;;;12550331;28;20497;-74
2022/01/04 00:49:35;;;;;;;27.83;23.50;;;;;;;;;;12550201;28;20033;-73
2022/01/04 00:55:36;;;;;;;30.48;25.95;;;;;;;;;;12533106;28;20498;-74
2022/01/04 01:01:39;;;;;;;31.23;27.38;;;;;;;;;;12549616;28;20029;-73
2022/01/04 01:07:41;;;;;;;30.53;25.20;;;;;;;;;;12547492;28;20021;-74
2022/01/04 01:13:43;;;;;;;32.53;28.65;;;;;;;;;;12547552;28;20303;-73
2022/01/04 01:19:45;;;;;;;27.60;24.40;;;;;;;;;;12548408;28;20062;-73
2022/01/04 01:25:46;;;;;;;23.73;21.10;;;;;;;;;;12547675;28;20040;-73
2022/01/04 01:31:48;;;;;;;21.13;18.90;;;;;;;;;;12530320;28;20048;-73
2022/01/04 01:37:50;;;;;;;25.15;22.48;;;;;;;;;;12546671;28;20033;-74
2022/01/04 01:43:52;;;;;;;22.60;19.83;;;;;;;;;;12546304;28;20033;-72
2022/01/04 01:49:54;;;;;;;21.45;19.15;;;;;;;;;;12547137;28;20029;-72
2022/01/04 01:55:55;;;;;;;22.67;20.33;;;;;;;;;;12548228;28;20474;-72
2022/01/04 02:01:57;;;;;;;21.58;19.08;;;;;;;;;;12545481;28;20040;-73
2022/01/04 02:08:03;;;;;;;19.88;17.85;;;;;;;;;;12546333;28;20068;-74
2022/01/04 02:14:04;;;;;;;20.77;18.55;;;;;;;;;;12544875;28;20509;-74
2022/01/04 02:20:07;;;;;;;18.75;16.85;;;;;;;;;;12543657;28;20529;-74
2022/01/04 02:26:09;;;;;;;18.92;15.63;;;;;;;;;;12528836;28;20421;-73
2022/01/04 02:32:11;;;;;;;18.17;16.27;;;;;;;;;;12527537;28;20044;-74
2022/01/04 02:38:13;;;;;;;16.77;15.00;;;;;;;;;;12545050;28;20504;-73
2022/01/04 02:44:15;;;;;;;18.38;16.48;;;;;;;;;;12544797;28;20025;-74
2022/01/04 02:50:16;;;;;;;19.48;17.05;;;;;;;;;;12544712;28;20387;-73
2022/01/04 02:56:18;;;;;;;16.33;13.37;;;;;;;;;;12544318;28;20049;-73
2022/01/04 03:02:20;;;;;;;17.50;15.50;;;;;;;;;;12544114;28;20029;-73
2022/01/04 03:08:22;;;;;;;20.80;18.48;;;;;;;;;;12543316;28;20033;-73
2022/01/04 03:14:24;;;;;;;16.13;14.45;;;;;;;;;;12542386;28;20053;-73
2022/01/04 03:20:25;;;;;;;17.48;15.57;;;;;;;;;;12543872;28;20033;-73
2022/01/04 03:26:27;;;;;;;17.65;15.68;;;;;;;;;;12544773;28;20040;-73
2022/01/04 03:32:29;;;;;;;16.20;14.15;;;;;;;;;;12553053;28;20052;-73
2022/01/04 03:38:31;;;;;;;18.70;16.02;;;;;;;;;;12552245;28;20044;-73
2022/01/04 03:44:32;;;;;;;18.35;15.95;;;;;;;;;;12553135;28;20025;-73
2022/01/04 03:50:34;;;;;;;18.80;16.65;;;;;;;;;;12551877;28;20048;-73
2022/01/04 03:56:36;;;;;;;16.73;14.93;;;;;;;;;;12551536;28;20056;-73
2022/01/04 04:02:37;;;;;;;18.33;15.95;;;;;;;;;;12551301;28;20036;-73
2022/01/04 04:08:39;;;;;;;18.92;16.25;;;;;;;;;;12551190;28;20029;-73
2022/01/04 04:14:42;;;;;;;21.00;17.73;;;;;;;;;;12552019;28;20063;-73
2022/01/04 04:20:44;;;;;;;16.58;14.77;;;;;;;;;;12550316;28;20523;-73
2022/01/04 04:26:45;;;;;;;15.75;13.48;;;;;;;;;;12550302;28;20386;-73
2022/01/04 04:32:47;;;;;;;21.90;18.55;;;;;;;;;;12550848;28;20079;-73
2022/01/04 04:38:49;;;;;;;18.02;16.13;;;;;;;;;;12548549;28;20025;-73
2022/01/04 04:44:50;;;;;;;19.13;17.02;;;;;;;;;;12549124;28;20041;-73
2022/01/04 04:50:52;;;;;;;18.58;16.50;;;;;;;;;;12549083;28;20036;-73
2022/01/04 04:56:54;;;;;;;17.83;15.93;;;;;;;;;;12548400;28;20056;-73
2022/01/04 05:02:55;;;;;;;17.55;14.80;;;;;;;;;;12549487;28;20486;-73
2022/01/04 05:08:57;;;;;;;17.55;15.27;;;;;;;;;;12549197;28;20037;-72
2022/01/04 05:14:59;;;;;;;16.92;15.20;;;;;;;;;;12547597;28;20056;-73
2022/01/04 05:21:01;;;;;;;17.45;15.65;;;;;;;;;;12547828;28;20067;-73
2022/01/04 05:27:03;;;;;;;22.55;20.15;;;;;;;;;;12547331;28;20036;-73
2022/01/04 05:33:05;;;;;;;17.45;15.75;;;;;;;;;;12546930;28;20041;-73
2022/01/04 05:39:07;;;;;;;17.60;15.10;;;;;;;;;;12546841;28;20033;-73
2022/01/04 05:45:09;;;;;;;21.33;18.63;;;;;;;;;;12546466;28;20040;-72
2022/01/04 05:51:10;;;;;;;18.55;16.75;;;;;;;;;;12546708;28;20033;-72
2022/01/04 05:57:12;;;;;;;15.57;13.93;;;;;;;;;;12545606;28;20055;-73
2022/01/04 06:03:14;;;;;;;18.40;15.77;;;;;;;;;;12546797;28;20036;-73
2022/01/04 06:09:24;;;;;;;17.88;15.63;;;;;;;;;;12545048;28;20037;-73
2022/01/04 06:15:25;;;;;;;16.80;15.10;;;;;;;;;;12544644;28;20048;-73
2022/01/04 06:21:27;;;;;;;18.02;16.13;;;;;;;;;;12544933;28;20060;-72
2022/01/04 06:27:29;;;;;;;19.88;17.73;;;;;;;;;;12545573;28;20033;-73
2022/01/04 06:33:30;;;;;;;22.08;18.65;;;;;;;;;;12545346;28;20049;-73
2022/01/04 06:39:32;;;;;;;21.60;18.55;;;;;;;;;;12545009;28;20028;-73
2022/01/04 06:45:34;;;;;;;22.63;19.67;;;;;;;;;;12544959;28;20278;-73
2022/01/04 06:51:36;;;;;;;27.38;23.13;;;;;;;;;;12543839;28;20049;-73
2022/01/04 06:57:37;;;;;;;20.38;18.15;;;;;;;;;;12544183;28;20041;-73
2022/01/04 07:03:39;;;;;;;24.58;21.98;;;;;;;;;;12542702;28;20036;-73
2022/01/04 07:09:41;;;;;;;23.30;20.90;;;;;;;;;;12543809;28;20401;-73
2022/01/04 07:15:46;;;;;;;34.35;30.15;;;;;;;;;;12543570;28;20053;-72
2022/01/04 07:21:47;;;;;;;33.95;29.17;;;;;;;;;;12543674;28;20029;-72
2022/01/04 07:27:49;;;;;;;29.58;24.63;;;;;;;;;;12542375;28;20041;-73
2022/01/04 07:33:51;;;;;;;31.92;27.23;;;;;;;;;;12542003;28;20041;-73
2022/01/04 07:39:53;;;;;;;31.05;27.42;;;;;;;;;;12543213;28;20482;-73
2022/01/04 07:45:54;;;;;;;30.63;24.63;;;;;;;;;;12543002;28;20052;-73
2022/01/04 07:51:56;;;;;;;22.23;19.90;;;;;;;;;;12543234;28;20044;-74
2022/01/04 07:57:58;;;;;;;21.33;18.40;;;;;;;;;;12542863;28;20033;-73
2022/01/04 08:04:04;;;;;;;15.95;13.95;;;;;;;;;;12541497;28;20040;-73
2022/01/04 08:10:06;;;;;;;22.58;19.60;;;;;;;;;;12541021;28;20137;-73
2022/01/04 08:16:08;;;;;;;22.73;20.27;;;;;;;;;;12546313;28;20045;-72
2022/01/04 08:22:10;;;;;;;24.25;18.65;;;;;;;;;;12550555;28;20040;-72
2022/01/04 08:28:11;;;;;;;20.63;18.45;;;;;;;;;;12533003;28;20410;-74
2022/01/04 08:34:13;;;;;;;22.17;19.55;;;;;;;;;;12550944;28;20355;-74
2022/01/04 08:40:15;;;;;;;28.83;21.50;;;;;;;;;;12549359;28;20029;-74
2022/01/04 08:46:17;;;;;;;23.65;19.92;;;;;;;;;;12549153;28;20040;-73
2022/01/04 08:52:19;;;;;;;25.67;22.70;;;;;;;;;;12548930;28;20419;-73
2022/01/04 08:58:20;;;;;;;23.23;19.95;;;;;;;;;;12548318;28;20478;-75
2022/01/04 09:04:22;;;;;;;21.02;18.65;;;;;;;;;;12549329;28;20036;-75
2022/01/04 09:10:24;;;;;;;18.65;16.60;;;;;;;;;;12549603;28;20041;-76
2022/01/04 09:22:46;;;;;;;21.08;18.90;;;;;;;;;;12549204;28;20044;-76
2022/01/04 09:28:48;;;;;;;26.83;23.90;;;;;;;;;;12547897;28;20044;-76
2022/01/04 09:34:50;;;;;;;29.77;22.52;;;;;;;;;;12546896;28;20045;-75
2022/01/04 09:40:53;;;;;;;25.70;22.35;;;;;;;;;;12545788;28;20043;-74
2022/01/04 09:46:55;;;;;;;38.00;30.42;;;;;;;;;;12546137;28;20029;-73
2022/01/04 09:52:57;;;;;;;28.83;25.10;;;;;;;;;;12529931;28;20053;-74
2022/01/04 09:58:59;;;;;;;28.33;25.27;;;;;;;;;;12545104;28;20029;-74
2022/01/04 10:05:13;;;;;;;33.25;29.73;;;;;;;;;;12546132;28;20044;-74
2022/01/04 10:11:15;;;;;;;32.10;28.55;;;;;;;;;;12545693;28;20057;-73
2022/01/04 10:17:25;;;;;;;27.52;24.50;;;;;;;;;;12545339;28;20056;-74
2022/01/04 10:23:27;;;;;;;27.33;24.55;;;;;;;;;;12539325;28;20401;-73
2022/01/04 10:29:29;;;;;;;21.92;19.65;;;;;;;;;;12543678;28;20045;-74
2022/01/04 10:35:44;;;;;;;26.55;23.48;;;;;;;;;;12526976;28;20044;-73
2022/01/04 10:41:46;;;;;;;24.25;21.73;;;;;;;;;;12544567;28;20044;-73
2022/01/04 10:47:48;;;;;;;24.15;21.73;;;;;;;;;;12543426;28;20033;-74
2022/01/04 10:53:54;;;;;;;22.23;20.08;;;;;;;;;;12527661;28;20063;-74
2022/01/04 11:00:12;;;;;;;16.17;14.40;;;;;;;;;;12543863;28;20509;-74
2022/01/04 11:06:13;;;;;;;20.77;18.67;;;;;;;;;;12542606;28;20033;-75
2022/01/04 11:12:16;;;;;;;19.88;17.90;;;;;;;;;;12543571;28;20049;-74
2022/01/04 11:18:18;;;;;;;18.23;15.80;;;;;;;;;;12542069;28;20033;-75
2022/01/04 11:24:23;;;;;;;27.33;24.43;;;;;;;;;;12544090;28;20029;-75
2022/01/04 11:30:44;;;;;;;24.98;22.38;;;;;;;;;;12541955;28;20037;-75
2022/01/04 11:36:51;;;;;;;24.73;21.65;;;;;;;;;;12542841;28;20037;-75
2022/01/04 11:42:53;;;;;;;25.02;22.33;;;;;;;;;;12541457;28;20047;-75
2022/01/04 11:49:06;;;;;;;27.13;24.08;;;;;;;;;;12545953;28;20036;-74
2022/01/04 11:55:29;;;;;;;30.80;27.45;;;;;;;;;;12551859;28;20055;-74
2022/01/04 12:01:31;;;;;;;33.17;29.63;;;;;;;;;;12550716;28;20044;-74
2022/01/04 12:07:39;;;;;;;40.80;36.35;;;;;;;;;;12550648;28;20463;-74
2022/01/04 12:13:52;;;;;;;44.85;37.58;;;;;;;;;;12550585;28;20414;-74
2022/01/04 12:19:57;;;;;;;48.07;38.10;;;;;;;;;;12551143;28;20025;-73
2022/01/04 12:26:11;;;;;;;50.30;43.33;;;;;;;;;;12549908;28;20302;-73
2022/01/04 12:32:23;;;;;;;39.25;34.72;;;;;;;;;;12550622;28;20399;-73
2022/01/04 12:38:25;;;;;;;36.93;33.00;;;;;;;;;;12549692;28;20029;-74
2022/01/04 12:44:28;;;;;;;31.30;27.85;;;;;;;;;;12548803;28;20029;-73
2022/01/04 12:50:30;;;;;;;29.27;26.17;;;;;;;;;;12549987;28;20033;-74
2022/01/04 12:56:32;;;;;;;33.08;29.75;;;;;;;;;;12548903;28;20049;-73
2022/01/04 13:02:33;;;;;;;39.05;34.95;;;;;;;;;;12548039;28;20029;-74
2022/01/04 13:08:36;;;;;;;33.63;29.20;;;;;;;;;;12530988;28;20039;-74
2022/01/04 13:14:38;;;;;;;33.58;29.65;;;;;;;;;;12548513;28;20517;-74
2022/01/04 13:20:40;;;;;;;27.10;24.33;;;;;;;;;;12548293;28;20048;-73
2022/01/04 13:26:42;;;;;;;;;;;;;;;;;;12548701;28;20045;-73
2022/01/04 13:32:48;;;;;;;27.92;25.08;;;;;;;;;;12547194;28;19924;-73
2022/01/04 13:38:50;;;;;;;24.52;22.08;;;;;;;;;;12546836;28;20032;-74
2022/01/04 13:44:52;;;;;;;;;;;;;;;;;;12546383;28;20040;-73
2022/01/04 13:50:54;;;;;;;19.55;17.65;;;;;;;;;;12545822;28;19916;-74
2022/01/04 13:56:56;;;;;;;17.00;15.30;;;;;;;;;;12545254;28;20041;-73
2022/01/04 14:02:57;;;;;;;17.67;15.93;;;;;;;;;;12545472;28;20380;-74
2022/01/04 14:09:00;;;;;;;19.55;17.65;;;;;;;;;;12545171;28;20036;-74
2022/01/04 14:15:07;;;;;;;20.57;18.47;;;;;;;;;;12543703;28;20064;-74
2022/01/04 14:21:09;;;;;;;21.35;19.08;;;;;;;;;;12545677;28;20025;-74
2022/01/04 14:27:31;;;;;;;22.75;20.35;;;;;;;;;;12544013;28;20040;-73
2022/01/04 14:33:32;;;;;;;20.20;17.88;;;;;;;;;;12527370;28;20525;-73
2022/01/04 14:39:34;;;;;;;19.58;16.98;;;;;;;;;;12543884;28;20060;-73
2022/01/04 14:45:37;;;;;;;20.50;18.37;;;;;;;;;;12544049;28;20490;-74
2022/01/04 14:51:39;;;;;;;17.10;15.30;;;;;;;;;;12544550;28;20035;-73
2022/01/04 14:57:41;;;;;;;22.87;20.07;;;;;;;;;;12526551;28;20045;-73
2022/01/04 15:03:43;;;;;;;29.55;26.35;;;;;;;;;;12542925;28;20048;-74
2022/01/04 15:09:45;;;;;;;31.38;28.08;;;;;;;;;;12526292;28;20053;-74
2022/01/04 15:15:46;;;;;;;24.33;21.77;;;;;;;;;;12542765;28;20388;-74
2022/01/04 15:21:48;;;;;;;28.70;25.75;;;;;;;;;;12525855;28;20378;-74
2022/01/04 15:27:53;;;;;;;28.02;25.13;;;;;;;;;;12543383;28;20037;-74
2022/01/04 15:33:54;;;;;;;28.80;25.90;;;;;;;;;;12541943;28;20041;-74
2022/01/04 15:39:56;;;;;;;23.48;21.10;;;;;;;;;;12543400;28;20040;-74
2022/01/04 15:45:59;;;;;;;26.40;23.67;;;;;;;;;;12541893;28;20040;-73
2022/01/04 15:52:01;;;;;;;26.15;23.48;;;;;;;;;;12543116;28;20033;-73
2022/01/04 15:58:02;;;;;;;28.23;25.33;;;;;;;;;;12525209;28;20045;-73
2022/01/04 16:04:04;;;;;;;28.30;24.23;;;;;;;;;;12541662;28;20047;-74
2022/01/04 16:10:07;;;;;;;26.98;24.13;;;;;;;;;;12541093;28;20053;-73
2022/01/04 16:16:19;;;;;;;;;;;;;;;;;;12542699;28;20509;-72
2022/01/04 16:22:21;;;;;;;24.58;22.10;;;;;;;;;;12541469;28;20350;-73
2022/01/04 16:28:22;;;;;;;27.77;25.02;;;;;;;;;;12541824;28;20045;-73
2022/01/04 16:34:25;;;;;;;25.98;23.42;;;;;;;;;;12541431;28;20051;-73
2022/01/04 16:40:27;;;;;;;26.57;23.83;;;;;;;;;;12549538;28;20032;-73
2022/01/04 16:46:28;;;;;;;30.10;26.97;;;;;;;;;;12532647;28;20501;-72
2022/01/04 16:52:30;;;;;;;34.53;31.08;;;;;;;;;;12550433;28;20041;-72
2022/01/04 16:58:32;;;;;;;35.58;31.55;;;;;;;;;;12548529;28;20040;-73
2022/01/04 17:04:35;;;;;;;35.95;32.25;;;;;;;;;;12531706;28;20033;-74
2022/01/04 17:10:47;;;;;;;43.40;38.85;;;;;;;;;;12549196;28;20060;-74
2022/01/04 17:16:48;;;;;;;45.10;40.03;;;;;;;;;;12548096;28;20044;-73
2022/01/04 17:22:50;;;;;;;55.10;49.17;;;;;;;;;;12549377;28;20036;-73
2022/01/04 17:28:52;;;;;;;51.20;44.90;;;;;;;;;;12548466;28;20025;-73
2022/01/04 17:34:53;;;;;;;48.00;42.97;;;;;;;;;;12548251;28;20517;-72
2022/01/04 17:40:55;;;;;;;45.38;37.53;;;;;;;;;;12547998;28;20033;-73
2022/01/04 17:46:57;;;;;;;50.03;44.07;;;;;;;;;;12547009;28;20041;-73
2022/01/04 17:52:59;;;;;;;49.20;40.60;;;;;;;;;;12546744;28;20045;-73
2022/01/04 17:59:01;;;;;;;44.13;37.08;;;;;;;;;;12546664;28;20033;-74
2022/01/04 18:05:03;;;;;;;41.95;34.90;;;;;;;;;;12545200;28;20390;-73
2022/01/04 18:11:05;;;;;;;39.27;30.90;;;;;;;;;;12546291;28;20049;-73
2022/01/04 18:17:06;;;;;;;33.00;28.33;;;;;;;;;;12527920;28;20041;-73
2022/01/04 18:23:09;;;;;;;36.23;30.03;;;;;;;;;;12545219;28;20482;-74
2022/01/04 18:29:10;;;;;;;34.40;26.90;;;;;;;;;;12545323;28;20044;-74
2022/01/04 18:35:12;;;;;;;29.40;25.15;;;;;;;;;;12545079;28;20045;-74
2022/01/04 18:41:14;;;;;;;27.58;22.35;;;;;;;;;;12543879;28;20041;-74
2022/01/04 18:47:15;;;;;;;26.60;23.15;;;;;;;;;;12544648;28;20040;-75
2022/01/04 18:53:17;;;;;;;31.52;25.83;;;;;;;;;;12545390;28;20091;-74
2022/01/04 18:59:19;;;;;;;34.63;29.25;;;;;;;;;;12543836;28;20294;-73
2022/01/04 19:05:21;;;;;;;26.38;21.75;;;;;;;;;;12542894;28;20037;-74
2022/01/04 19:11:24;;;;;;;33.08;27.35;;;;;;;;;;12543914;28;20052;-75
2022/01/04 19:17:26;;;;;;;39.15;32.53;;;;;;;;;;12525700;28;20041;-75
2022/01/04 19:23:28;;;;;;;41.92;31.92;;;;;;;;;;12542925;28;20039;-75
2022/01/04 19:29:29;;;;;;;39.58;32.72;;;;;;;;;;12542314;28;20036;-74
2022/01/04 19:41:51;;;;;;;35.55;28.63;;;;;;;;;;12542026;28;20041;-74
2022/01/04 19:47:53;;;;;;;32.65;25.73;;;;;;;;;;12541760;28;20044;-74
2022/01/04 19:54:00;;;;;;;38.13;30.40;;;;;;;;;;12542567;28;20040;-74
2022/01/04 20:00:02;;;;;;;27.40;22.17;;;;;;;;;;12541497;28;20445;-74
2022/01/04 20:06:17;;;;;;;23.88;20.02;;;;;;;;;;12541730;28;20021;-73
2022/01/04 20:12:19;;;;;;;30.60;24.80;;;;;;;;;;12546496;28;20057;-74
2022/01/04 20:18:20;;;;;;;24.38;21.42;;;;;;;;;;12551871;28;20048;-74
2022/01/04 20:24:22;;;;;;;23.00;19.60;;;;;;;;;;12552725;28;20048;-74
2022/01/04 20:30:24;;;;;;;23.38;19.42;;;;;;;;;;12550199;28;20049;-73
2022/01/04 20:36:26;;;;;;;17.30;14.52;;;;;;;;;;12551162;28;20037;-74
2022/01/04 20:42:28;;;;;;;27.73;21.25;;;;;;;;;;12533075;28;20486;-73
2022/01/04 20:48:29;;;;;;;27.75;21.55;;;;;;;;;;12550531;28;20482;-73
2022/01/04 20:54:31;;;;;;;30.02;24.45;;;;;;;;;;12549730;28;20051;-73
2022/01/04 21:00:33;;;;;;;34.35;26.95;;;;;;;;;;12532330;28;20409;-73
2022/01/04 21:06:34;;;;;;;29.52;21.98;;;;;;;;;;12548486;28;20060;-73
2022/01/04 21:12:37;;;;;;;25.55;19.92;;;;;;;;;;12531911;28;20056;-74
2022/01/04 21:18:39;;;;;;;22.73;18.65;;;;;;;;;;12549129;28;20035;-74
2022/01/04 21:24:40;;;;;;;18.05;14.88;;;;;;;;;;12549505;28;20062;-73
2022/01/04 21:30:42;;;;;;;21.67;18.92;;;;;;;;;;12547289;28;20037;-73
2022/01/04 21:36:44;;;;;;;14.32;12.30;;;;;;;;;;12530318;28;20049;-73
2022/01/04 21:42:46;;;;;;;18.35;16.00;;;;;;;;;;12547871;28;20037;-74
2022/01/04 21:48:48;;;;;;;24.95;20.23;;;;;;;;;;12546499;28;20040;-73
2022/01/04 21:54:50;;;;;;;23.65;20.23;;;;;;;;;;12548568;28;20378;-73
2022/01/04 22:00:51;;;;;;;22.88;18.67;;;;;;;;;;12529073;28;20060;-73
2022/01/04 22:06:54;;;;;;;18.65;15.63;;;;;;;;;;12545774;28;20044;-73
2022/01/04 22:12:56;;;;;;;20.55;16.33;;;;;;;;;;12546824;28;20048;-73
2022/01/04 22:18:57;;;;;;;14.68;13.10;;;;;;;;;;12545969;28;20033;-73
2022/01/04 22:25:00;;;;;;;16.75;14.20;;;;;;;;;;12547340;28;20060;-74
2022/01/04 22:31:02;;;;;;;16.63;14.38;;;;;;;;;;12544998;28;20048;-74
2022/01/04 22:37:04;;;;;;;26.45;21.02;;;;;;;;;;12544904;28;20041;-75
2022/01/04 22:43:05;;;;;;;20.02;17.05;;;;;;;;;;12527416;28;20036;-75
2022/01/04 22:49:07;;;;;;;18.92;15.32;;;;;;;;;;12544144;28;20037;-73
2022/01/04 22:55:09;;;;;;;17.20;14.20;;;;;;;;;;12543664;28;20055;-74
2022/01/04 23:01:11;;;;;;;18.35;14.52;;;;;;;;;;12543562;28;20043;-72
2022/01/04 23:07:14;;;;;;;;;;;;;;;;;;12545067;28;20037;-73
2022/01/04 23:13:16;;;;;;;21.67;17.13;;;;;;;;;;12544145;28;19920;-73
2022/01/04 23:19:17;;;;;;;19.20;15.18;;;;;;;;;;12543530;28;20398;-74
2022/01/04 23:25:19;;;;;;;23.02;19.13;;;;;;;;;;12545337;28;20037;-74
2022/01/04 23:31:21;;;;;;;21.58;17.00;;;;;;;;;;12543925;28;20041;-74
2022/01/04 23:37:22;;;;;;;22.98;18.05;;;;;;;;;;12543403;28;20041;-73
2022/01/04 23:43:24;;;;;;;22.88;18.00;;;;;;;;;;12544059;28;20060;-74
2022/01/04 23:49:26;;;;;;;22.20;17.80;;;;;;;;;;12553240;28;20036;-75
2022/01/04 23:55:28;;;;;;;24.60;18.10;;;;;;;;;;12536181;28;20040;-73
